sensor_id;sensor_type;location;lat;lon;timestamp;temperature;humidity
14511;DHT22;7341;50.930;4.038;2022-12-18T00:01:15;-3.20;99.90
14511;DHT22;7341;50.930;4.038;2022-12-18T00:03:43;-3.30;99.90
14511;DHT22;7341;50.930;4.038;2022-12-18T00:06:11;-3.40;99.90
14511;DHT22;7341;50.930;4.038;2022-12-18T00:08:39;-3.40;99.90
14511;DHT22;7341;50.930;4.038;2022-12-18T00:11:13;-3.40;99.90
14511;DHT22;7341;50.930;4.038;2022-12-18T00:13:41;-3.40;99.90
14511;DHT22;7341;50.930;4.038;2022-12-18T00:16:12;-3.50;99.90
14511;DHT22;7341;50.930;4.038;2022-12-18T00:18:40;-3.50;99.90
14511;DHT22;7341;50.930;4.038;2022-12-18T00:21:09;-3.50;99.90
14511;DHT22;7341;50.930;4.038;2022-12-18T00:23:37;-3.60;99.90
14511;DHT22;7341;50.930;4.038;2022-12-18T00:26:06;-3.70;99.90
14511;DHT22;7341;50.930;4.038;2022-12-18T00:28:34;-3.70;99.90
14511;DHT22;7341;50.930;4.038;2022-12-18T00:31:02;-3.70;99.90
14511;DHT22;7341;50.930;4.038;2022-12-18T00:33:31;-3.70;99.90
14511;DHT22;7341;50.930;4.038;2022-12-18T00:36:00;-3.60;99.90
14511;DHT22;7341;50.930;4.038;2022-12-18T00:38:29;-3.70;99.90
14511;DHT22;7341;50.930;4.038;2022-12-18T00:40:56;-3.70;99.90
14511;DHT22;7341;50.930;4.038;2022-12-18T00:43:29;-3.70;99.90
14511;DHT22;7341;50.930;4.038;2022-12-18T00:45:56;-3.80;99.90
14511;DHT22;7341;50.930;4.038;2022-12-18T00:48:23;-3.80;99.90
14511;DHT22;7341;50.930;4.038;2022-12-18T00:50:51;-3.80;99.90
14511;DHT22;7341;50.930;4.038;2022-12-18T00:53:18;-3.90;99.90
14511;DHT22;7341;50.930;4.038;2022-12-18T00:55:45;-3.90;99.90
14511;DHT22;7341;50.930;4.038;2022-12-18T00:58:14;-3.90;99.90
14511;DHT22;7341;50.930;4.038;2022-12-18T01:00:41;-4.00;99.90
14511;DHT22;7341;50.930;4.038;2022-12-18T01:03:13;-4.00;99.90
14511;DHT22;7341;50.930;4.038;2022-12-18T01:05:40;-4.00;99.90
14511;DHT22;7341;50.930;4.038;2022-12-18T01:08:10;-4.10;99.90
14511;DHT22;7341;50.930;4.038;2022-12-18T01:10:40;-4.00;99.90
14511;DHT22;7341;50.930;4.038;2022-12-18T01:13:06;-4.10;99.90
14511;DHT22;7341;50.930;4.038;2022-12-18T01:15:39;-4.20;99.90
14511;DHT22;7341;50.930;4.038;2022-12-18T01:18:08;-4.30;99.90
14511;DHT22;7341;50.930;4.038;2022-12-18T01:20:35;-4.20;99.90
14511;DHT22;7341;50.930;4.038;2022-12-18T01:23:02;-4.20;99.90
14511;DHT22;7341;50.930;4.038;2022-12-18T01:25:30;-4.20;99.90
14511;DHT22;7341;50.930;4.038;2022-12-18T01:27:57;-4.20;99.90
14511;DHT22;7341;50.930;4.038;2022-12-18T01:30:25;-4.20;99.90
14511;DHT22;7341;50.930;4.038;2022-12-18T01:32:52;-4.20;99.90
14511;DHT22;7341;50.930;4.038;2022-12-18T01:35:20;-4.30;99.90
14511;DHT22;7341;50.930;4.038;2022-12-18T01:37:47;-4.30;99.90
14511;DHT22;7341;50.930;4.038;2022-12-18T01:40:14;-4.30;99.90
14511;DHT22;7341;50.930;4.038;2022-12-18T01:42:43;-4.30;99.90
14511;DHT22;7341;50.930;4.038;2022-12-18T01:45:23;-4.30;99.90
14511;DHT22;7341;50.930;4.038;2022-12-18T01:47:52;-4.30;99.90
14511;DHT22;7341;50.930;4.038;2022-12-18T01:50:21;-4.30;99.90
14511;DHT22;7341;50.930;4.038;2022-12-18T01:52:51;-4.30;99.90
14511;DHT22;7341;50.930;4.038;2022-12-18T01:55:20;-4.30;99.90
14511;DHT22;7341;50.930;4.038;2022-12-18T01:57:52;-4.30;99.90
14511;DHT22;7341;50.930;4.038;2022-12-18T02:00:21;-4.30;99.90
14511;DHT22;7341;50.930;4.038;2022-12-18T02:02:48;-4.40;99.90
14511;DHT22;7341;50.930;4.038;2022-12-18T02:05:19;-4.40;99.90
14511;DHT22;7341;50.930;4.038;2022-12-18T02:07:55;-4.40;99.90
14511;DHT22;7341;50.930;4.038;2022-12-18T02:10:39;-4.40;99.90
14511;DHT22;7341;50.930;4.038;2022-12-18T02:13:14;-4.40;99.90
14511;DHT22;7341;50.930;4.038;2022-12-18T02:15:51;-4.40;99.90
14511;DHT22;7341;50.930;4.038;2022-12-18T02:18:22;-4.50;99.90
14511;DHT22;7341;50.930;4.038;2022-12-18T02:20:56;-4.60;99.90
14511;DHT22;7341;50.930;4.038;2022-12-18T02:23:38;-4.70;99.90
14511;DHT22;7341;50.930;4.038;2022-12-18T02:26:16;-4.70;99.90
14511;DHT22;7341;50.930;4.038;2022-12-18T02:28:46;-4.70;99.90
14511;DHT22;7341;50.930;4.038;2022-12-18T02:31:23;-4.70;99.90
14511;DHT22;7341;50.930;4.038;2022-12-18T02:33:53;-4.70;99.90
14511;DHT22;7341;50.930;4.038;2022-12-18T02:36:22;-4.70;99.90
14511;DHT22;7341;50.930;4.038;2022-12-18T02:38:51;-4.80;99.90
14511;DHT22;7341;50.930;4.038;2022-12-18T02:41:21;-4.80;99.90
14511;DHT22;7341;50.930;4.038;2022-12-18T02:43:55;-4.80;99.90
14511;DHT22;7341;50.930;4.038;2022-12-18T02:46:32;-4.80;99.90
14511;DHT22;7341;50.930;4.038;2022-12-18T02:49:13;-4.80;99.90
14511;DHT22;7341;50.930;4.038;2022-12-18T02:51:50;-4.90;99.90
14511;DHT22;7341;50.930;4.038;2022-12-18T02:54:27;-4.90;99.90
14511;DHT22;7341;50.930;4.038;2022-12-18T02:57:05;-4.90;99.90
14511;DHT22;7341;50.930;4.038;2022-12-18T02:59:39;-5.00;99.90
14511;DHT22;7341;50.930;4.038;2022-12-18T03:02:17;-5.00;99.90
14511;DHT22;7341;50.930;4.038;2022-12-18T03:04:49;-5.00;99.90
14511;DHT22;7341;50.930;4.038;2022-12-18T03:07:38;-5.10;99.90
14511;DHT22;7341;50.930;4.038;2022-12-18T03:10:07;-5.10;99.90
14511;DHT22;7341;50.930;4.038;2022-12-18T03:12:41;-5.20;99.90
14511;DHT22;7341;50.930;4.038;2022-12-18T03:15:12;-5.20;99.90
14511;DHT22;7341;50.930;4.038;2022-12-18T03:17:42;-5.10;99.90
14511;DHT22;7341;50.930;4.038;2022-12-18T03:20:14;-5.10;99.90
14511;DHT22;7341;50.930;4.038;2022-12-18T03:22:45;-5.20;99.90
14511;DHT22;7341;50.930;4.038;2022-12-18T03:25:14;-5.20;99.90
14511;DHT22;7341;50.930;4.038;2022-12-18T03:27:48;-5.20;99.90
14511;DHT22;7341;50.930;4.038;2022-12-18T03:30:16;-5.20;99.90
14511;DHT22;7341;50.930;4.038;2022-12-18T03:32:47;-5.10;99.90
14511;DHT22;7341;50.930;4.038;2022-12-18T03:35:20;-5.30;99.90
14511;DHT22;7341;50.930;4.038;2022-12-18T03:37:48;-5.20;99.90
14511;DHT22;7341;50.930;4.038;2022-12-18T03:40:15;-5.20;99.90
14511;DHT22;7341;50.930;4.038;2022-12-18T03:42:47;-5.20;99.90
14511;DHT22;7341;50.930;4.038;2022-12-18T03:45:20;-5.20;99.90
14511;DHT22;7341;50.930;4.038;2022-12-18T03:48:01;-5.10;99.90
14511;DHT22;7341;50.930;4.038;2022-12-18T03:50:37;-5.10;99.90
14511;DHT22;7341;50.930;4.038;2022-12-18T03:53:14;-5.20;99.90
14511;DHT22;7341;50.930;4.038;2022-12-18T03:55:44;-5.20;99.90
14511;DHT22;7341;50.930;4.038;2022-12-18T03:58:15;-5.30;99.90
14511;DHT22;7341;50.930;4.038;2022-12-18T04:00:44;-5.30;99.90
14511;DHT22;7341;50.930;4.038;2022-12-18T04:03:12;-5.30;99.90
14511;DHT22;7341;50.930;4.038;2022-12-18T04:05:41;-5.40;99.90
14511;DHT22;7341;50.930;4.038;2022-12-18T04:08:08;-5.30;99.90
14511;DHT22;7341;50.930;4.038;2022-12-18T04:10:35;-5.30;99.90
14511;DHT22;7341;50.930;4.038;2022-12-18T04:13:02;-5.20;99.90
14511;DHT22;7341;50.930;4.038;2022-12-18T04:15:32;-5.20;99.90
14511;DHT22;7341;50.930;4.038;2022-12-18T04:18:01;-5.20;99.90
14511;DHT22;7341;50.930;4.038;2022-12-18T04:20:28;-5.30;99.90
14511;DHT22;7341;50.930;4.038;2022-12-18T04:22:55;-5.20;99.90
14511;DHT22;7341;50.930;4.038;2022-12-18T04:25:28;-5.30;99.90
14511;DHT22;7341;50.930;4.038;2022-12-18T04:27:55;-5.20;99.90
14511;DHT22;7341;50.930;4.038;2022-12-18T04:30:25;-5.10;99.90
14511;DHT22;7341;50.930;4.038;2022-12-18T04:32:54;-5.30;99.90
14511;DHT22;7341;50.930;4.038;2022-12-18T04:35:21;-5.30;99.90
14511;DHT22;7341;50.930;4.038;2022-12-18T04:37:49;-5.30;99.90
14511;DHT22;7341;50.930;4.038;2022-12-18T04:40:16;-5.40;99.90
14511;DHT22;7341;50.930;4.038;2022-12-18T04:42:43;-5.30;99.90
14511;DHT22;7341;50.930;4.038;2022-12-18T04:45:10;-5.30;99.90
14511;DHT22;7341;50.930;4.038;2022-12-18T04:47:36;-5.30;99.90
14511;DHT22;7341;50.930;4.038;2022-12-18T04:50:05;-5.20;99.90
14511;DHT22;7341;50.930;4.038;2022-12-18T04:52:32;-5.20;99.90
14511;DHT22;7341;50.930;4.038;2022-12-18T04:55:03;-5.30;99.90
14511;DHT22;7341;50.930;4.038;2022-12-18T04:57:29;-5.40;99.90
14511;DHT22;7341;50.930;4.038;2022-12-18T04:59:56;-5.40;99.90
14511;DHT22;7341;50.930;4.038;2022-12-18T05:02:29;-5.50;99.90
14511;DHT22;7341;50.930;4.038;2022-12-18T05:04:56;-5.50;99.90
14511;DHT22;7341;50.930;4.038;2022-12-18T05:07:27;-5.40;99.90
14511;DHT22;7341;50.930;4.038;2022-12-18T05:09:54;-5.40;99.90
14511;DHT22;7341;50.930;4.038;2022-12-18T05:12:20;-5.40;99.90
14511;DHT22;7341;50.930;4.038;2022-12-18T05:14:47;-5.50;99.90
14511;DHT22;7341;50.930;4.038;2022-12-18T05:17:16;-5.60;99.90
14511;DHT22;7341;50.930;4.038;2022-12-18T05:19:44;-5.70;99.90
14511;DHT22;7341;50.930;4.038;2022-12-18T05:22:11;-5.80;99.90
14511;DHT22;7341;50.930;4.038;2022-12-18T05:24:40;-5.80;99.90
14511;DHT22;7341;50.930;4.038;2022-12-18T05:27:06;-5.70;99.90
14511;DHT22;7341;50.930;4.038;2022-12-18T05:29:33;-5.70;99.90
14511;DHT22;7341;50.930;4.038;2022-12-18T05:32:00;-5.60;99.90
14511;DHT22;7341;50.930;4.038;2022-12-18T05:34:27;-5.60;99.90
14511;DHT22;7341;50.930;4.038;2022-12-18T05:36:55;-5.60;99.90
14511;DHT22;7341;50.930;4.038;2022-12-18T05:39:21;-5.60;99.90
14511;DHT22;7341;50.930;4.038;2022-12-18T05:41:55;-5.50;99.90
14511;DHT22;7341;50.930;4.038;2022-12-18T05:44:23;-5.60;99.90
14511;DHT22;7341;50.930;4.038;2022-12-18T05:46:56;-5.60;99.90
14511;DHT22;7341;50.930;4.038;2022-12-18T05:49:23;-5.60;99.90
14511;DHT22;7341;50.930;4.038;2022-12-18T05:51:50;-5.70;99.90
14511;DHT22;7341;50.930;4.038;2022-12-18T05:54:16;-5.60;99.90
14511;DHT22;7341;50.930;4.038;2022-12-18T05:56:44;-5.60;99.90
14511;DHT22;7341;50.930;4.038;2022-12-18T05:59:12;-5.70;99.90
14511;DHT22;7341;50.930;4.038;2022-12-18T06:01:39;-5.60;99.90
14511;DHT22;7341;50.930;4.038;2022-12-18T06:04:06;-5.60;99.90
14511;DHT22;7341;50.930;4.038;2022-12-18T06:06:34;-5.60;99.90
14511;DHT22;7341;50.930;4.038;2022-12-18T06:09:01;-5.50;99.90
14511;DHT22;7341;50.930;4.038;2022-12-18T06:11:37;-5.50;99.90
14511;DHT22;7341;50.930;4.038;2022-12-18T06:14:05;-5.40;99.90
14511;DHT22;7341;50.930;4.038;2022-12-18T06:16:35;-5.40;99.90
14511;DHT22;7341;50.930;4.038;2022-12-18T06:19:04;-5.40;99.90
14511;DHT22;7341;50.930;4.038;2022-12-18T06:21:32;-5.40;99.90
14511;DHT22;7341;50.930;4.038;2022-12-18T06:24:05;-5.40;99.90
14511;DHT22;7341;50.930;4.038;2022-12-18T06:26:32;-5.40;99.90
14511;DHT22;7341;50.930;4.038;2022-12-18T06:29:05;-5.40;99.90
14511;DHT22;7341;50.930;4.038;2022-12-18T06:31:39;-5.40;99.90
14511;DHT22;7341;50.930;4.038;2022-12-18T06:34:05;-5.40;99.90
14511;DHT22;7341;50.930;4.038;2022-12-18T06:36:32;-5.30;99.90
14511;DHT22;7341;50.930;4.038;2022-12-18T06:38:59;-5.40;99.90
14511;DHT22;7341;50.930;4.038;2022-12-18T06:41:29;-5.40;99.90
14511;DHT22;7341;50.930;4.038;2022-12-18T06:43:57;-5.40;99.90
14511;DHT22;7341;50.930;4.038;2022-12-18T06:46:24;-5.40;99.90
14511;DHT22;7341;50.930;4.038;2022-12-18T06:48:52;-5.40;99.90
14511;DHT22;7341;50.930;4.038;2022-12-18T06:51:23;-5.50;99.90
14511;DHT22;7341;50.930;4.038;2022-12-18T06:53:50;-5.50;99.90
14511;DHT22;7341;50.930;4.038;2022-12-18T06:56:17;-5.50;99.90
14511;DHT22;7341;50.930;4.038;2022-12-18T06:58:44;-5.60;99.90
14511;DHT22;7341;50.930;4.038;2022-12-18T07:01:11;-5.60;99.90
14511;DHT22;7341;50.930;4.038;2022-12-18T07:03:39;-5.60;99.90
14511;DHT22;7341;50.930;4.038;2022-12-18T07:06:13;-5.50;99.90
14511;DHT22;7341;50.930;4.038;2022-12-18T07:08:41;-5.50;99.90
14511;DHT22;7341;50.930;4.038;2022-12-18T07:11:08;-5.50;99.90
14511;DHT22;7341;50.930;4.038;2022-12-18T07:13:36;-5.40;99.90
14511;DHT22;7341;50.930;4.038;2022-12-18T07:16:07;-5.50;99.90
14511;DHT22;7341;50.930;4.038;2022-12-18T07:18:34;-5.40;99.90
14511;DHT22;7341;50.930;4.038;2022-12-18T07:21:04;-5.40;99.90
14511;DHT22;7341;50.930;4.038;2022-12-18T07:23:34;-5.40;99.90
14511;DHT22;7341;50.930;4.038;2022-12-18T07:26:03;-5.50;99.90
14511;DHT22;7341;50.930;4.038;2022-12-18T07:28:35;-5.50;99.90
14511;DHT22;7341;50.930;4.038;2022-12-18T07:31:04;-5.50;99.90
14511;DHT22;7341;50.930;4.038;2022-12-18T07:33:31;-5.50;99.90
14511;DHT22;7341;50.930;4.038;2022-12-18T07:35:59;-5.50;99.90
14511;DHT22;7341;50.930;4.038;2022-12-18T07:38:27;-5.40;99.90
14511;DHT22;7341;50.930;4.038;2022-12-18T07:40:59;-5.40;99.90
14511;DHT22;7341;50.930;4.038;2022-12-18T07:43:26;-5.40;99.90
14511;DHT22;7341;50.930;4.038;2022-12-18T07:45:53;-5.40;99.90
14511;DHT22;7341;50.930;4.038;2022-12-18T07:48:20;-5.40;99.90
14511;DHT22;7341;50.930;4.038;2022-12-18T07:50:47;-5.40;99.90
14511;DHT22;7341;50.930;4.038;2022-12-18T07:53:14;-5.30;99.90
14511;DHT22;7341;50.930;4.038;2022-12-18T07:55:41;-5.30;99.90
14511;DHT22;7341;50.930;4.038;2022-12-18T07:58:11;-5.30;99.90
14511;DHT22;7341;50.930;4.038;2022-12-18T08:00:38;-5.30;99.90
14511;DHT22;7341;50.930;4.038;2022-12-18T08:03:05;-5.30;99.90
14511;DHT22;7341;50.930;4.038;2022-12-18T08:05:32;-5.30;99.90
14511;DHT22;7341;50.930;4.038;2022-12-18T08:08:01;-5.30;99.90
14511;DHT22;7341;50.930;4.038;2022-12-18T08:10:34;-5.20;99.90
14511;DHT22;7341;50.930;4.038;2022-12-18T08:13:02;-5.10;99.90
14511;DHT22;7341;50.930;4.038;2022-12-18T08:15:31;-5.00;99.90
14511;DHT22;7341;50.930;4.038;2022-12-18T08:17:59;-4.90;99.90
14511;DHT22;7341;50.930;4.038;2022-12-18T08:20:25;-4.80;99.90
14511;DHT22;7341;50.930;4.038;2022-12-18T08:22:53;-4.80;99.90
14511;DHT22;7341;50.930;4.038;2022-12-18T08:25:20;-4.70;99.90
14511;DHT22;7341;50.930;4.038;2022-12-18T08:27:47;-4.80;99.90
14511;DHT22;7341;50.930;4.038;2022-12-18T08:30:14;-4.70;99.90
14511;DHT22;7341;50.930;4.038;2022-12-18T08:32:43;-4.60;99.90
14511;DHT22;7341;50.930;4.038;2022-12-18T08:35:09;-4.40;99.90
14511;DHT22;7341;50.930;4.038;2022-12-18T08:37:38;-4.30;99.90
14511;DHT22;7341;50.930;4.038;2022-12-18T08:40:07;-4.20;99.90
14511;DHT22;7341;50.930;4.038;2022-12-18T08:42:34;-4.10;99.90
14511;DHT22;7341;50.930;4.038;2022-12-18T08:45:18;-4.00;99.90
14511;DHT22;7341;50.930;4.038;2022-12-18T08:47:46;-3.90;99.90
14511;DHT22;7341;50.930;4.038;2022-12-18T08:50:13;-3.70;99.90
14511;DHT22;7341;50.930;4.038;2022-12-18T08:52:40;-3.50;99.90
14511;DHT22;7341;50.930;4.038;2022-12-18T08:55:08;-3.30;99.90
14511;DHT22;7341;50.930;4.038;2022-12-18T08:57:35;-3.20;99.90
14511;DHT22;7341;50.930;4.038;2022-12-18T09:00:03;-3.20;99.90
14511;DHT22;7341;50.930;4.038;2022-12-18T09:02:29;-3.00;99.90
14511;DHT22;7341;50.930;4.038;2022-12-18T09:04:57;-2.80;99.90
14511;DHT22;7341;50.930;4.038;2022-12-18T09:07:24;-2.70;99.90
14511;DHT22;7341;50.930;4.038;2022-12-18T09:09:51;-2.60;99.90
14511;DHT22;7341;50.930;4.038;2022-12-18T09:12:18;-2.50;99.90
14511;DHT22;7341;50.930;4.038;2022-12-18T09:14:45;-2.50;99.90
14511;DHT22;7341;50.930;4.038;2022-12-18T09:17:11;-2.50;99.90
14511;DHT22;7341;50.930;4.038;2022-12-18T09:19:38;-2.50;99.90
14511;DHT22;7341;50.930;4.038;2022-12-18T09:22:06;-2.40;99.90
14511;DHT22;7341;50.930;4.038;2022-12-18T09:24:35;-2.40;99.90
14511;DHT22;7341;50.930;4.038;2022-12-18T09:27:01;-2.30;99.90
14511;DHT22;7341;50.930;4.038;2022-12-18T09:29:28;-2.10;99.90
14511;DHT22;7341;50.930;4.038;2022-12-18T09:31:57;-2.00;99.90
14511;DHT22;7341;50.930;4.038;2022-12-18T09:34:24;-1.90;99.90
14511;DHT22;7341;50.930;4.038;2022-12-18T09:36:50;-1.80;99.90
14511;DHT22;7341;50.930;4.038;2022-12-18T09:39:18;-1.70;99.90
14511;DHT22;7341;50.930;4.038;2022-12-18T09:41:47;-1.60;99.90
14511;DHT22;7341;50.930;4.038;2022-12-18T09:44:21;-1.50;99.90
14511;DHT22;7341;50.930;4.038;2022-12-18T09:46:58;-1.50;99.90
14511;DHT22;7341;50.930;4.038;2022-12-18T09:49:28;-1.40;99.90
14511;DHT22;7341;50.930;4.038;2022-12-18T09:51:59;-1.30;99.90
14511;DHT22;7341;50.930;4.038;2022-12-18T09:54:32;-1.20;99.90
14511;DHT22;7341;50.930;4.038;2022-12-18T09:57:00;-1.20;99.90
14511;DHT22;7341;50.930;4.038;2022-12-18T09:59:30;-1.10;99.90
14511;DHT22;7341;50.930;4.038;2022-12-18T10:01:58;-1.10;99.90
14511;DHT22;7341;50.930;4.038;2022-12-18T10:04:29;-1.10;99.90
14511;DHT22;7341;50.930;4.038;2022-12-18T10:07:02;-1.00;99.90
14511;DHT22;7341;50.930;4.038;2022-12-18T10:09:37;-0.90;99.90
14511;DHT22;7341;50.930;4.038;2022-12-18T10:12:12;-0.80;99.90
14511;DHT22;7341;50.930;4.038;2022-12-18T10:14:49;-0.60;99.90
14511;DHT22;7341;50.930;4.038;2022-12-18T10:17:23;-0.70;99.90
14511;DHT22;7341;50.930;4.038;2022-12-18T10:19:54;-0.60;99.90
14511;DHT22;7341;50.930;4.038;2022-12-18T10:22:30;-0.50;99.90
14511;DHT22;7341;50.930;4.038;2022-12-18T10:25:05;-0.40;99.90
14511;DHT22;7341;50.930;4.038;2022-12-18T10:27:33;-0.30;99.90
14511;DHT22;7341;50.930;4.038;2022-12-18T10:30:04;-0.20;99.90
14511;DHT22;7341;50.930;4.038;2022-12-18T10:32:35;-0.10;99.90
14511;DHT22;7341;50.930;4.038;2022-12-18T10:35:02;0.00;99.90
14511;DHT22;7341;50.930;4.038;2022-12-18T10:37:29;0.00;99.90
14511;DHT22;7341;50.930;4.038;2022-12-18T10:40:10;0.00;99.90
14511;DHT22;7341;50.930;4.038;2022-12-18T10:42:38;0.00;99.90
14511;DHT22;7341;50.930;4.038;2022-12-18T10:45:13;0.00;99.90
14511;DHT22;7341;50.930;4.038;2022-12-18T10:47:45;0.20;99.90
14511;DHT22;7341;50.930;4.038;2022-12-18T10:50:20;0.30;99.90
14511;DHT22;7341;50.930;4.038;2022-12-18T10:52:57;0.30;99.90
14511;DHT22;7341;50.930;4.038;2022-12-18T10:55:30;0.10;99.90
14511;DHT22;7341;50.930;4.038;2022-12-18T10:58:16;0.30;99.90
14511;DHT22;7341;50.930;4.038;2022-12-18T11:00:43;0.30;99.90
14511;DHT22;7341;50.930;4.038;2022-12-18T11:03:29;0.40;99.90
14511;DHT22;7341;50.930;4.038;2022-12-18T11:06:02;0.30;99.90
14511;DHT22;7341;50.930;4.038;2022-12-18T11:08:29;0.40;99.90
14511;DHT22;7341;50.930;4.038;2022-12-18T11:10:59;0.40;99.90
14511;DHT22;7341;50.930;4.038;2022-12-18T11:13:29;0.60;99.90
14511;DHT22;7341;50.930;4.038;2022-12-18T11:15:57;0.70;99.90
14511;DHT22;7341;50.930;4.038;2022-12-18T11:18:27;0.50;99.90
14511;DHT22;7341;50.930;4.038;2022-12-18T11:20:57;0.60;99.90
14511;DHT22;7341;50.930;4.038;2022-12-18T11:23:26;0.70;99.90
14511;DHT22;7341;50.930;4.038;2022-12-18T11:25:56;0.70;99.90
14511;DHT22;7341;50.930;4.038;2022-12-18T11:28:35;0.80;99.90
14511;DHT22;7341;50.930;4.038;2022-12-18T11:31:22;0.90;99.90
14511;DHT22;7341;50.930;4.038;2022-12-18T11:33:54;0.80;99.90
14511;DHT22;7341;50.930;4.038;2022-12-18T11:36:23;0.90;99.90
14511;DHT22;7341;50.930;4.038;2022-12-18T11:38:55;0.80;99.90
14511;DHT22;7341;50.930;4.038;2022-12-18T11:41:29;1.00;99.90
14511;DHT22;7341;50.930;4.038;2022-12-18T11:44:15;1.10;99.90
14511;DHT22;7341;50.930;4.038;2022-12-18T11:46:49;1.10;99.90
14511;DHT22;7341;50.930;4.038;2022-12-18T11:49:54;1.00;99.90
14511;DHT22;7341;50.930;4.038;2022-12-18T12:12:55;1.30;99.90
14511;DHT22;7341;50.930;4.038;2022-12-18T12:18:56;1.20;99.90
14511;DHT22;7341;50.930;4.038;2022-12-18T12:21:39;1.10;99.90
14511;DHT22;7341;50.930;4.038;2022-12-18T12:24:29;1.00;99.90
14511;DHT22;7341;50.930;4.038;2022-12-18T12:27:37;1.10;99.90
14511;DHT22;7341;50.930;4.038;2022-12-18T13:20:06;1.50;99.90
14511;DHT22;7341;50.930;4.038;2022-12-18T14:00:29;1.20;99.90
14511;DHT22;7341;50.930;4.038;2022-12-18T14:06:30;1.20;99.90
14511;DHT22;7341;50.930;4.038;2022-12-18T14:13:26;1.00;99.90
14511;DHT22;7341;50.930;4.038;2022-12-18T15:46:43;1.30;99.90
14511;DHT22;7341;50.930;4.038;2022-12-18T15:50:04;1.40;99.90
14511;DHT22;7341;50.930;4.038;2022-12-18T15:56:17;1.20;99.90
14511;DHT22;7341;50.930;4.038;2022-12-18T16:22:34;1.60;99.90
14511;DHT22;7341;50.930;4.038;2022-12-18T16:32:24;1.50;99.90
14511;DHT22;7341;50.930;4.038;2022-12-18T16:52:41;1.60;99.90
14511;DHT22;7341;50.930;4.038;2022-12-18T17:01:50;1.70;99.90
14511;DHT22;7341;50.930;4.038;2022-12-18T17:04:24;1.70;99.90
14511;DHT22;7341;50.930;4.038;2022-12-18T17:07:09;1.60;99.90
14511;DHT22;7341;50.930;4.038;2022-12-18T17:09:44;1.70;99.90
14511;DHT22;7341;50.930;4.038;2022-12-18T17:12:14;1.60;99.90
14511;DHT22;7341;50.930;4.038;2022-12-18T17:14:45;1.60;99.90
14511;DHT22;7341;50.930;4.038;2022-12-18T17:17:19;1.60;99.90
14511;DHT22;7341;50.930;4.038;2022-12-18T17:19:46;1.60;99.90
14511;DHT22;7341;50.930;4.038;2022-12-18T17:22:14;1.50;99.90
14511;DHT22;7341;50.930;4.038;2022-12-18T17:24:45;1.50;99.90
14511;DHT22;7341;50.930;4.038;2022-12-18T17:27:15;1.40;99.90
14511;DHT22;7341;50.930;4.038;2022-12-18T17:29:54;1.40;99.90
14511;DHT22;7341;50.930;4.038;2022-12-18T17:32:29;1.30;99.90
14511;DHT22;7341;50.930;4.038;2022-12-18T17:34:56;1.30;99.90
14511;DHT22;7341;50.930;4.038;2022-12-18T17:37:23;1.30;99.90
14511;DHT22;7341;50.930;4.038;2022-12-18T17:39:59;1.30;99.90
14511;DHT22;7341;50.930;4.038;2022-12-18T17:42:27;1.30;99.90
14511;DHT22;7341;50.930;4.038;2022-12-18T17:44:55;1.30;99.90
14511;DHT22;7341;50.930;4.038;2022-12-18T17:47:26;1.30;99.90
14511;DHT22;7341;50.930;4.038;2022-12-18T17:49:56;1.20;99.90
14511;DHT22;7341;50.930;4.038;2022-12-18T17:52:26;1.20;99.90
14511;DHT22;7341;50.930;4.038;2022-12-18T17:54:55;1.30;99.90
14511;DHT22;7341;50.930;4.038;2022-12-18T17:57:26;1.30;99.90
14511;DHT22;7341;50.930;4.038;2022-12-18T17:59:55;1.50;99.90
14511;DHT22;7341;50.930;4.038;2022-12-18T18:02:26;1.40;99.90
14511;DHT22;7341;50.930;4.038;2022-12-18T18:04:54;1.30;99.90
14511;DHT22;7341;50.930;4.038;2022-12-18T18:07:26;1.30;99.90
14511;DHT22;7341;50.930;4.038;2022-12-18T18:09:54;1.30;99.90
14511;DHT22;7341;50.930;4.038;2022-12-18T18:12:52;1.20;99.90
14511;DHT22;7341;50.930;4.038;2022-12-18T18:15:36;1.20;99.90
14511;DHT22;7341;50.930;4.038;2022-12-18T18:18:04;1.20;99.90
14511;DHT22;7341;50.930;4.038;2022-12-18T18:20:38;1.10;99.90
14511;DHT22;7341;50.930;4.038;2022-12-18T18:23:06;1.10;99.90
14511;DHT22;7341;50.930;4.038;2022-12-18T18:25:36;1.10;99.90
14511;DHT22;7341;50.930;4.038;2022-12-18T18:28:39;1.20;99.90
14511;DHT22;7341;50.930;4.038;2022-12-18T18:31:11;1.20;99.90
14511;DHT22;7341;50.930;4.038;2022-12-18T18:33:40;1.20;99.90
14511;DHT22;7341;50.930;4.038;2022-12-18T18:36:10;1.30;99.90
14511;DHT22;7341;50.930;4.038;2022-12-18T18:38:39;1.30;99.90
14511;DHT22;7341;50.930;4.038;2022-12-18T18:41:09;1.50;99.90
14511;DHT22;7341;50.930;4.038;2022-12-18T18:43:43;1.30;99.90
14511;DHT22;7341;50.930;4.038;2022-12-18T18:46:35;1.30;99.90
14511;DHT22;7341;50.930;4.038;2022-12-18T18:49:19;1.40;99.90
14511;DHT22;7341;50.930;4.038;2022-12-18T18:52:00;1.40;99.90
14511;DHT22;7341;50.930;4.038;2022-12-18T18:54:52;1.40;99.90
14511;DHT22;7341;50.930;4.038;2022-12-18T19:09:44;1.50;99.90
14511;DHT22;7341;50.930;4.038;2022-12-18T19:12:33;1.60;99.90
14511;DHT22;7341;50.930;4.038;2022-12-18T19:16:04;1.50;99.90
14511;DHT22;7341;50.930;4.038;2022-12-18T19:18:46;1.60;99.90
14511;DHT22;7341;50.930;4.038;2022-12-18T19:21:29;1.70;99.90
14511;DHT22;7341;50.930;4.038;2022-12-18T19:24:29;1.80;99.90
14511;DHT22;7341;50.930;4.038;2022-12-18T19:27:00;1.80;99.90
14511;DHT22;7341;50.930;4.038;2022-12-18T19:29:43;1.70;99.90
14511;DHT22;7341;50.930;4.038;2022-12-18T19:35:34;1.80;99.90
14511;DHT22;7341;50.930;4.038;2022-12-18T19:38:30;1.80;99.90
14511;DHT22;7341;50.930;4.038;2022-12-18T19:47:43;1.50;99.90
14511;DHT22;7341;50.930;4.038;2022-12-18T19:53:52;1.60;99.90
14511;DHT22;7341;50.930;4.038;2022-12-18T19:56:52;1.60;99.90
14511;DHT22;7341;50.930;4.038;2022-12-18T19:59:34;1.60;99.90
14511;DHT22;7341;50.930;4.038;2022-12-18T20:03:02;1.70;99.90
14511;DHT22;7341;50.930;4.038;2022-12-18T20:05:48;1.70;99.90
14511;DHT22;7341;50.930;4.038;2022-12-18T20:08:30;1.80;99.90
14511;DHT22;7341;50.930;4.038;2022-12-18T20:11:30;1.90;99.90
14511;DHT22;7341;50.930;4.038;2022-12-18T20:14:16;1.80;99.90
14511;DHT22;7341;50.930;4.038;2022-12-18T20:17:16;1.90;99.90
14511;DHT22;7341;50.930;4.038;2022-12-18T20:22:58;2.00;99.90
14511;DHT22;7341;50.930;4.038;2022-12-18T20:25:31;2.00;99.90
14511;DHT22;7341;50.930;4.038;2022-12-18T20:28:08;2.00;99.90
14511;DHT22;7341;50.930;4.038;2022-12-18T20:31:50;2.10;99.90
14511;DHT22;7341;50.930;4.038;2022-12-18T20:35:13;2.10;99.90
14511;DHT22;7341;50.930;4.038;2022-12-18T20:41:11;2.10;99.90
14511;DHT22;7341;50.930;4.038;2022-12-18T20:44:01;2.10;99.90
14511;DHT22;7341;50.930;4.038;2022-12-18T20:46:47;2.10;99.90
14511;DHT22;7341;50.930;4.038;2022-12-18T20:49:50;2.00;99.90
14511;DHT22;7341;50.930;4.038;2022-12-18T20:52:54;2.10;99.90
14511;DHT22;7341;50.930;4.038;2022-12-18T20:55:22;2.10;99.90
14511;DHT22;7341;50.930;4.038;2022-12-18T21:18:34;2.40;99.90
14511;DHT22;7341;50.930;4.038;2022-12-18T21:21:19;2.40;99.90
14511;DHT22;7341;50.930;4.038;2022-12-18T21:27:10;2.40;99.90
14511;DHT22;7341;50.930;4.038;2022-12-18T21:29:46;2.30;99.90
14511;DHT22;7341;50.930;4.038;2022-12-18T21:32:17;2.30;99.90
14511;DHT22;7341;50.930;4.038;2022-12-18T21:35:00;2.50;99.90
14511;DHT22;7341;50.930;4.038;2022-12-18T21:37:57;2.60;99.90
14511;DHT22;7341;50.930;4.038;2022-12-18T21:40:26;2.80;99.90
14511;DHT22;7341;50.930;4.038;2022-12-18T21:42:59;2.70;99.90
14511;DHT22;7341;50.930;4.038;2022-12-18T21:45:55;2.80;99.90
14511;DHT22;7341;50.930;4.038;2022-12-18T21:48:22;2.80;99.90
14511;DHT22;7341;50.930;4.038;2022-12-18T21:51:05;2.80;99.90
14511;DHT22;7341;50.930;4.038;2022-12-18T21:53:33;2.90;99.90